Etusivu
METAR-TAF:

METAR-TAF

Lentoasemat :

Gibraltarin lentoasema

Gibraltar, Gibraltar

Leveyspiiri: 36-09N, Pituuspiiri: 005-21W, korkeus merenpinnasta: 5 m

Tämänhetkinen sää

Tämä raportti tehtiin 23 minuuttia sitten, kello 06.50 UTC
Tuuli 2 kn lännestä
Lämpötila 21°C
Kosteus 83%
Ilmanpaine 1016 hPa
Näkyvyys 10 km tai enemmän
ei pilviä alle 1500 m:ssä eikä cumulonimbus-pilviä

METAR: LXGB 220650Z 26002KT CAVOK 21/18 Q1016 NOSIG

Aika: 09:13 (07:13 UTC)

Sääennuste

Tämä raportti tehtiin 2 tuntia ja 27 minuuttia sitten, kello 04.46 UTC
Ennuste voimassa 22. päivästä klo 06 UTC - 22. päivään klo 15 UTC
Tuuli 4 kn lännestä
Näkyvyys 10 km tai enemmän
Muutamia pilviä 2000 ft:n korkeudessa
Tulossa
22. päivästä klo 06 UTC - 22. päivään klo 09 UTC
Tuuli 10 kn idästä

TAF: LXGB 220446Z 2206/2215 26004KT 9999 FEW020 BECMG 2206/2209 09010KT

Säähavainnot ja -ennusteet yli 4000 lentoasemalta (METAR- ja TAF-raportit).

Käytössä olevat sääasemat on merkitty karttaan keltaisilla ja punaisilla pisteillä.

Aseta hiiri pisteen päälle nähdäksesi sääaseman nimen.

Klikkaa sitten nähdäksesi säähavainnot ja -ennusteet.

Kartan vaihtaminen: klikkaa mustalla rastilla varustettuja vihreitä pisteitä, niin voit zoomata sisään; viivalla varustettua vihreää pistettä, niin voit zoomata ulos tai vihreitä nuolia, niin pääset viereisille kartoille.


METAR-TAF: